createdAt,value
2019-05-14T00:00:21.686Z,1009.22
2019-05-14T00:01:21.956Z,1009.24
2019-05-14T00:02:21.454Z,1009.25
2019-05-14T00:03:21.756Z,1009.26
2019-05-14T00:04:21.922Z,1009.25
2019-05-14T00:05:21.456Z,1009.24
2019-05-14T00:06:21.739Z,1009.25
2019-05-14T00:07:22.147Z,1009.23
2019-05-14T00:08:21.904Z,1009.23
2019-05-14T00:09:21.403Z,1009.31
2019-05-14T00:10:21.683Z,1009.29
2019-05-14T00:11:21.769Z,1009.25
2019-05-14T00:12:19.563Z,1009.23
2019-05-14T00:13:21.456Z,1009.23
2019-05-14T00:14:19.464Z,1009.25
2019-05-14T00:15:21.509Z,1009.24
2019-05-14T00:16:22.233Z,1009.19
2019-05-14T00:17:21.321Z,1009.18
2019-05-14T00:18:19.469Z,1009.20
2019-05-14T00:19:21.465Z,1009.15
2019-05-14T00:20:22.418Z,1009.16
2019-05-14T00:21:21.183Z,1009.14
2019-05-14T00:22:21.444Z,1009.20
2019-05-14T00:23:21.467Z,1009.13
2019-05-14T00:24:21.584Z,1009.17
2019-05-14T00:25:19.233Z,1009.14
2019-05-14T00:26:21.341Z,1009.13
2019-05-14T00:27:19.191Z,1009.11
2019-05-14T00:28:21.076Z,1009.12
2019-05-14T00:29:21.854Z,1009.13
2019-05-14T00:30:19.127Z,1009.13
2019-05-14T00:31:21.191Z,1009.09
2019-05-14T00:32:21.473Z,1009.07
2019-05-14T00:33:19.076Z,1009.07
2019-05-14T00:34:21.336Z,1009.11
2019-05-14T00:35:21.386Z,1009.13
2019-05-14T00:36:21.366Z,1009.09
2019-05-14T00:37:19.030Z,1009.05
2019-05-14T00:38:18.961Z,1009.05
2019-05-14T00:39:21.244Z,1009.00
2019-05-14T00:40:19.007Z,1009.05
2019-05-14T00:41:21.291Z,1009.04
2019-05-14T00:42:21.394Z,1009.00
2019-05-14T00:43:18.966Z,1008.99
2019-05-14T00:44:21.368Z,1008.98
2019-05-14T00:45:18.871Z,1008.96
2019-05-14T00:46:21.004Z,1008.98
2019-05-14T00:47:18.892Z,1008.95
2019-05-14T00:48:18.853Z,1008.97
2019-05-14T00:49:21.054Z,1008.97
2019-05-14T00:50:18.810Z,1008.95
2019-05-14T00:51:18.822Z,1008.97
2019-05-14T00:52:18.795Z,1008.93
2019-05-14T00:53:20.735Z,1008.96
2019-05-14T00:54:18.662Z,1008.92
2019-05-14T00:55:18.660Z,1008.94
2019-05-14T00:56:18.672Z,1008.97
2019-05-14T00:57:20.992Z,1008.99
2019-05-14T00:58:18.652Z,1008.95
2019-05-14T00:59:18.604Z,1008.97
2019-05-14T01:00:18.605Z,1008.94
2019-05-14T01:01:18.603Z,1008.96
2019-05-14T01:02:18.533Z,1008.94
2019-05-14T01:03:18.500Z,1008.95
2019-05-14T01:04:18.461Z,1008.96
2019-05-14T01:05:18.459Z,1008.94
2019-05-14T01:06:18.440Z,1008.91
2019-05-14T01:07:18.416Z,1008.93
2019-05-14T01:08:18.387Z,1008.95
2019-05-14T01:09:18.394Z,1008.90
2019-05-14T01:10:18.382Z,1008.88
2019-05-14T01:11:18.362Z,1008.89
2019-05-14T01:12:18.341Z,1008.86
2019-05-14T01:13:18.288Z,1008.86
2019-05-14T01:14:18.278Z,1008.86
2019-05-14T01:15:18.275Z,1008.88
2019-05-14T01:16:18.295Z,1008.86
2019-05-14T01:17:18.240Z,1008.87
2019-05-14T01:18:18.213Z,1008.85
2019-05-14T01:19:18.194Z,1008.83
2019-05-14T01:20:18.200Z,1008.85
2019-05-14T01:21:18.153Z,1008.80
2019-05-14T01:22:18.167Z,1008.81
2019-05-14T01:23:18.118Z,1008.78
2019-05-14T01:40:15.282Z,1008.81
2019-05-14T01:41:15.098Z,1008.80
2019-05-14T01:43:22.515Z,1008.78
2019-05-14T01:44:22.587Z,1008.81
2019-05-14T01:48:11.664Z,1008.81
2019-05-14T01:49:12.042Z,1008.77
2019-05-14T01:50:11.465Z,1008.78
2019-05-14T01:51:11.885Z,1008.78
2019-05-14T01:52:11.230Z,1008.79
2019-05-14T01:53:11.505Z,1008.80
2019-05-14T01:54:11.921Z,1008.78
2019-05-14T01:55:11.384Z,1008.79
2019-05-14T01:56:11.960Z,1008.80
2019-05-14T01:57:11.533Z,1008.84
2019-05-14T01:58:11.473Z,1008.80
2019-05-14T01:59:11.924Z,1008.80
2019-05-14T02:00:11.483Z,1008.81
2019-05-14T02:01:11.877Z,1008.83
2019-05-14T02:02:11.663Z,1008.79
2019-05-14T02:03:11.983Z,1008.82
2019-05-14T02:04:11.681Z,1008.85
2019-05-14T02:05:12.239Z,1008.83
2019-05-14T02:06:11.724Z,1008.82
2019-05-14T02:07:11.598Z,1008.85
2019-05-14T02:08:11.973Z,1008.87
2019-05-14T02:09:11.093Z,1008.93
2019-05-14T02:10:11.623Z,1008.85
2019-05-14T02:11:11.891Z,1008.83
2019-05-14T02:12:11.773Z,1008.84
2019-05-14T02:13:12.117Z,1008.81
2019-05-14T02:14:11.597Z,1008.79
2019-05-14T02:15:11.877Z,1008.82
2019-05-14T02:16:12.784Z,1008.83
2019-05-14T02:17:12.154Z,1008.84
2019-05-14T02:18:11.143Z,1008.85
2019-05-14T02:19:11.581Z,1008.86
2019-05-14T02:20:09.723Z,1008.84
2019-05-14T02:21:11.685Z,1008.82
2019-05-14T02:22:11.306Z,1008.82
2019-05-14T02:23:11.825Z,1008.81
2019-05-14T02:24:11.340Z,1008.85
2019-05-14T02:25:11.604Z,1008.79
2019-05-14T02:26:11.396Z,1008.83
2019-05-14T02:27:12.075Z,1008.83
2019-05-14T02:28:11.425Z,1008.86
2019-05-14T02:29:09.527Z,1008.84
2019-05-14T02:30:09.618Z,1008.85
2019-05-14T02:31:09.757Z,1008.81
2019-05-14T02:32:10.509Z,1008.84
2019-05-14T02:33:09.539Z,1008.82
2019-05-14T02:34:10.129Z,1008.83
2019-05-14T02:35:10.194Z,1008.83
2019-05-14T02:36:10.422Z,1008.80
2019-05-14T02:37:09.575Z,1008.80
2019-05-14T02:38:10.378Z,1008.84
2019-05-14T02:39:10.111Z,1008.81
2019-05-14T02:40:09.916Z,1008.82
2019-05-14T02:41:09.982Z,1008.78
2019-05-14T02:42:09.862Z,1008.81
2019-05-14T02:43:09.732Z,1008.76
2019-05-14T02:44:09.849Z,1008.74
2019-05-14T02:45:09.337Z,1008.72
2019-05-14T02:46:16.011Z,1008.75
2019-05-14T02:47:09.886Z,1008.71
2019-05-14T02:48:09.584Z,1008.68
2019-05-14T02:49:10.480Z,1008.69
2019-05-14T02:50:10.049Z,1008.69
2019-05-14T02:51:10.489Z,1008.65
2019-05-14T02:52:10.054Z,1008.64
2019-05-14T02:53:10.241Z,1008.65
2019-05-14T02:54:10.008Z,1008.62
2019-05-14T02:55:09.557Z,1008.61
2019-05-14T02:56:10.464Z,1008.57
2019-05-14T02:57:10.358Z,1008.59
2019-05-14T02:58:09.967Z,1008.59
2019-05-14T02:59:09.762Z,1008.55
2019-05-14T03:00:10.107Z,1008.57
2019-05-14T03:01:09.407Z,1008.56
2019-05-14T03:02:09.932Z,1008.58
2019-05-14T03:03:09.828Z,1008.55
2019-05-14T03:04:09.183Z,1008.57
2019-05-14T03:05:09.901Z,1008.58
2019-05-14T03:06:09.475Z,1008.58
2019-05-14T03:07:10.705Z,1008.52
2019-05-14T03:08:09.131Z,1008.54
2019-05-14T03:09:09.737Z,1008.55
2019-05-14T03:10:09.913Z,1008.53
2019-05-14T03:12:43.910Z,1008.47
2019-05-14T03:13:42.412Z,1008.50
2019-05-14T03:15:39.103Z,1008.46
2019-05-14T03:18:04.398Z,1008.48
2019-05-14T03:19:04.210Z,1008.45
2019-05-14T03:24:50.219Z,1008.48
2019-05-14T03:25:49.549Z,1008.46
2019-05-14T03:40:22.722Z,1008.47
2019-05-14T03:41:22.368Z,1008.41
2019-05-14T03:43:29.548Z,1008.49
2019-05-14T03:44:29.288Z,1008.44
2019-05-14T03:45:30.094Z,1008.42
2019-05-14T03:46:44.680Z,1008.42
2019-05-14T03:47:29.813Z,1008.47
2019-05-14T03:48:29.726Z,1008.40
2019-05-14T03:49:28.994Z,1008.37
2019-05-14T03:50:29.761Z,1008.41
2019-05-14T03:51:29.858Z,1008.39
2019-05-14T03:52:29.392Z,1008.34
2019-05-14T03:53:29.558Z,1008.36
2019-05-14T03:54:29.785Z,1008.39
2019-05-14T03:55:29.375Z,1008.37
2019-05-14T03:56:29.894Z,1008.34
2019-05-14T03:57:29.258Z,1008.35
2019-05-14T03:58:30.041Z,1008.32
2019-05-14T03:59:29.303Z,1008.34
2019-05-14T04:00:29.374Z,1008.33
2019-05-14T04:01:29.751Z,1008.29
2019-05-14T04:02:29.735Z,1008.32
2019-05-14T04:03:29.441Z,1008.26
2019-05-14T04:04:29.937Z,1008.25
2019-05-14T04:05:29.413Z,1008.23
2019-05-14T04:06:30.134Z,1008.22
2019-05-14T04:07:30.399Z,1008.19
2019-05-14T04:08:29.295Z,1008.24
2019-05-14T04:09:29.427Z,1008.25
2019-05-14T04:10:30.106Z,1008.23
2019-05-14T04:11:29.409Z,1008.22
2019-05-14T04:12:29.403Z,1008.19
2019-05-14T04:13:30.258Z,1008.21
2019-05-14T04:14:29.217Z,1008.21
2019-05-14T04:15:29.889Z,1008.22
2019-05-14T04:16:29.258Z,1008.19
2019-05-14T04:17:33.752Z,1008.22
2019-05-14T04:18:29.196Z,1008.22
2019-05-14T04:19:29.551Z,1008.20
2019-05-14T04:20:29.778Z,1008.21
2019-05-14T04:21:29.889Z,1008.24
2019-05-14T04:22:29.885Z,1008.22
2019-05-14T04:23:29.010Z,1008.23
2019-05-14T04:24:29.523Z,1008.23
2019-05-14T04:25:29.600Z,1008.25
2019-05-14T04:26:30.283Z,1008.28
2019-05-14T04:27:29.813Z,1008.25
2019-05-14T04:28:29.825Z,1008.28
2019-05-14T04:29:30.708Z,1008.31
2019-05-14T04:30:29.085Z,1008.28
2019-05-14T04:31:29.825Z,1008.26
2019-05-14T04:32:29.192Z,1008.30
2019-05-14T04:33:30.298Z,1008.32
2019-05-14T04:34:30.005Z,1008.32
2019-05-14T04:35:29.614Z,1008.27
2019-05-14T04:36:29.931Z,1008.26
2019-05-14T04:37:29.027Z,1008.27
2019-05-14T04:38:29.977Z,1008.31
2019-05-14T04:39:30.795Z,1008.31
2019-05-14T04:40:29.652Z,1008.33
2019-05-14T04:41:29.913Z,1008.31
2019-05-14T04:42:29.479Z,1008.37
2019-05-14T04:43:29.402Z,1008.39
2019-05-14T04:44:29.717Z,1008.41
2019-05-14T04:45:29.672Z,1008.36
2019-05-14T04:46:30.326Z,1008.36
2019-05-14T04:47:36.548Z,1008.35
2019-05-14T04:48:36.285Z,1008.41
2019-05-14T04:49:29.034Z,1008.38
2019-05-14T04:50:29.648Z,1008.40
2019-05-14T04:51:30.301Z,1008.41
2019-05-14T04:52:29.275Z,1008.38
2019-05-14T04:53:30.905Z,1008.39
2019-05-14T04:54:30.177Z,1008.41
2019-05-14T04:55:29.669Z,1008.41
2019-05-14T04:56:30.157Z,1008.40
2019-05-14T04:57:30.000Z,1008.39
2019-05-14T04:58:29.775Z,1008.38
2019-05-14T04:59:29.907Z,1008.40
2019-05-14T05:00:30.546Z,1008.41
2019-05-14T05:01:29.437Z,1008.44
2019-05-14T05:02:30.180Z,1008.41
2019-05-14T05:03:30.289Z,1008.45
2019-05-14T05:04:29.856Z,1008.44
2019-05-14T05:05:29.995Z,1008.46
2019-05-14T05:06:29.097Z,1008.51
2019-05-14T05:07:29.783Z,1008.44
2019-05-14T05:08:30.226Z,1008.44
2019-05-14T05:09:29.350Z,1008.45
2019-05-14T05:10:29.771Z,1008.42
2019-05-14T05:11:29.138Z,1008.42
2019-05-14T05:12:29.632Z,1008.40
2019-05-14T05:13:29.173Z,1008.35
2019-05-14T05:14:29.448Z,1008.35
2019-05-14T05:15:29.064Z,1008.31
2019-05-14T05:16:29.342Z,1008.29
2019-05-14T05:17:42.946Z,1008.31
2019-05-14T05:18:29.612Z,1008.30
2019-05-14T05:19:29.084Z,1008.29
2019-05-14T05:20:29.139Z,1008.31
2019-05-14T05:21:28.267Z,1008.28
2019-05-14T05:22:28.571Z,1008.29
2019-05-14T05:23:28.253Z,1008.29
2019-05-14T05:24:28.756Z,1008.27
2019-05-14T05:25:29.058Z,1008.25
2019-05-14T05:26:28.611Z,1008.24
2019-05-14T05:27:28.697Z,1008.25
2019-05-14T05:28:28.407Z,1008.24
2019-05-14T05:29:28.584Z,1008.24
2019-05-14T05:30:26.784Z,1008.23
2019-05-14T05:31:28.411Z,1008.27
2019-05-14T05:32:28.539Z,1008.24
2019-05-14T05:33:29.137Z,1008.23
2019-05-14T05:34:28.266Z,1008.28
2019-05-14T05:35:29.031Z,1008.23
2019-05-14T05:36:28.865Z,1008.29
2019-05-14T05:37:26.669Z,1008.28
2019-05-14T05:38:29.101Z,1008.26
2019-05-14T05:39:28.263Z,1008.24
2019-05-14T05:40:28.795Z,1008.24
2019-05-14T05:41:28.239Z,1008.27
2019-05-14T05:42:29.279Z,1008.28
2019-05-14T05:43:28.565Z,1008.26
2019-05-14T05:44:28.706Z,1008.24
2019-05-14T05:45:28.846Z,1008.22
2019-05-14T05:46:28.509Z,1008.21
2019-05-14T05:47:28.559Z,1008.23
2019-05-14T05:48:28.376Z,1008.24
2019-05-14T05:49:26.463Z,1008.25
2019-05-14T05:50:28.645Z,1008.22
2019-05-14T05:51:28.694Z,1008.26
2019-05-14T05:52:28.271Z,1008.26
2019-05-14T05:53:28.698Z,1008.26
2019-05-14T05:54:29.008Z,1008.27
2019-05-14T05:55:28.621Z,1008.27
2019-05-14T05:56:28.647Z,1008.27
2019-05-14T05:57:28.422Z,1008.26
2019-05-14T05:58:29.603Z,1008.33
2019-05-14T05:59:26.304Z,1008.33
2019-05-14T06:00:26.265Z,1008.29
2019-05-14T06:01:39.439Z,1008.30
2019-05-14T06:02:26.245Z,1008.27
2019-05-14T06:03:29.660Z,1008.28
2019-05-14T06:04:28.743Z,1008.28
2019-05-14T06:05:26.182Z,1008.28
2019-05-14T06:06:28.250Z,1008.28
2019-05-14T06:07:28.440Z,1008.29
2019-05-14T06:08:28.200Z,1008.23
2019-05-14T06:09:28.516Z,1008.26
2019-05-14T06:10:26.100Z,1008.21
2019-05-14T06:11:26.079Z,1008.19
2019-05-14T06:12:26.064Z,1008.18
2019-05-14T06:13:28.524Z,1008.19
2019-05-14T06:14:26.029Z,1008.16
2019-05-14T06:15:41.941Z,1008.16
2019-05-14T06:16:25.996Z,1008.15
2019-05-14T06:17:28.299Z,1008.15
2019-05-14T06:18:28.382Z,1008.12
2019-05-14T06:19:25.953Z,1008.10
2019-05-14T06:20:28.097Z,1008.09
2019-05-14T06:21:25.925Z,1008.05
2019-05-14T06:22:27.916Z,1008.07
2019-05-14T06:23:28.155Z,1008.07
2019-05-14T06:24:25.866Z,1008.10
2019-05-14T06:25:25.856Z,1008.14
2019-05-14T06:26:25.854Z,1008.09
2019-05-14T06:27:25.825Z,1008.07
2019-05-14T06:28:30.150Z,1008.06
2019-05-14T06:29:25.784Z,1008.05
2019-05-14T06:30:25.789Z,1008.06
2019-05-14T06:31:25.754Z,1008.09
2019-05-14T06:32:25.742Z,1008.07
2019-05-14T06:33:28.392Z,1008.10
2019-05-14T06:34:25.709Z,1008.11
2019-05-14T06:35:28.343Z,1008.10
2019-05-14T06:36:25.690Z,1008.08
2019-05-14T06:37:25.661Z,1008.06
2019-05-14T06:38:25.656Z,1008.02
2019-05-14T06:39:28.134Z,1008.02
2019-05-14T06:40:25.630Z,1008.06
2019-05-14T06:41:28.190Z,1008.03
2019-05-14T06:42:25.594Z,1008.05
2019-05-14T06:43:25.569Z,1008.05
2019-05-14T06:44:25.556Z,1008.06
2019-05-14T06:45:25.552Z,1008.07
2019-05-14T06:46:25.531Z,1008.09
2019-05-14T06:47:25.528Z,1008.08
2019-05-14T06:48:30.868Z,1008.11
2019-05-14T06:49:25.479Z,1008.09
2019-05-14T06:50:28.323Z,1008.09
2019-05-14T06:51:25.452Z,1008.09
2019-05-14T06:52:25.439Z,1008.10
2019-05-14T06:53:25.421Z,1008.13
2019-05-14T06:54:25.414Z,1008.10
2019-05-14T06:55:25.397Z,1008.11
2019-05-14T06:56:25.375Z,1008.11
2019-05-14T06:57:25.358Z,1008.15
2019-05-14T06:58:25.361Z,1008.11
2019-05-14T06:59:25.328Z,1008.14
2019-05-14T07:00:25.323Z,1008.14
2019-05-14T07:01:25.304Z,1008.12
2019-05-14T07:02:25.293Z,1008.16
2019-05-14T07:03:25.273Z,1008.13
2019-05-14T07:04:25.259Z,1008.13
2019-05-14T07:05:25.248Z,1008.16
2019-05-14T07:06:25.240Z,1008.17
2019-05-14T07:07:25.223Z,1008.13
2019-05-14T07:08:25.211Z,1008.14
2019-05-14T07:09:25.193Z,1008.10
2019-05-14T07:10:25.172Z,1008.14
2019-05-14T07:11:25.173Z,1008.15
2019-05-14T07:12:25.151Z,1008.16
2019-05-14T07:13:25.135Z,1008.13
2019-05-14T07:14:25.137Z,1008.15
2019-05-14T07:15:25.108Z,1008.14
2019-05-14T07:16:25.094Z,1008.17
2019-05-14T07:17:25.078Z,1008.14
2019-05-14T07:18:25.064Z,1008.13
2019-05-14T07:19:25.056Z,1008.10
2019-05-14T07:20:25.041Z,1008.12
2019-05-14T07:21:25.024Z,1008.13
2019-05-14T07:22:25.030Z,1008.10
2019-05-14T07:23:25.014Z,1008.08
2019-05-14T07:24:24.984Z,1008.08
2019-05-14T07:25:24.971Z,1008.08
2019-05-14T07:26:24.973Z,1008.08
2019-05-14T07:27:24.952Z,1008.08
2019-05-14T07:28:24.941Z,1008.11
2019-05-14T07:29:24.934Z,1008.11
2019-05-14T07:30:24.911Z,1008.16
2019-05-14T07:31:24.902Z,1008.07
2019-05-14T07:32:24.957Z,1008.10
2019-05-14T07:33:25.429Z,1008.06
2019-05-14T07:34:24.860Z,1008.07
2019-05-14T07:35:24.848Z,1008.07
2019-05-14T07:36:24.835Z,1008.09
2019-05-14T07:37:24.817Z,1008.10
2019-05-14T07:38:24.814Z,1008.10
2019-05-14T07:39:24.797Z,1008.10
2019-05-14T07:40:24.781Z,1008.10
2019-05-14T07:41:24.772Z,1008.10
2019-05-14T07:42:24.765Z,1008.06
2019-05-14T07:43:24.764Z,1008.05
2019-05-14T07:44:24.747Z,1008.04
2019-05-14T07:45:24.727Z,1008.03
2019-05-14T07:46:24.720Z,1008.04
2019-05-14T07:47:24.708Z,1008.03
2019-05-14T07:48:24.700Z,1008.02
2019-05-14T07:49:24.693Z,1007.98
2019-05-14T07:50:24.682Z,1007.94
2019-05-14T07:51:24.668Z,1007.96
2019-05-14T07:52:24.669Z,1007.95
2019-05-14T07:53:36.169Z,1007.93
2019-05-14T07:54:24.632Z,1007.87
2019-05-14T07:55:24.633Z,1007.92
2019-05-14T07:56:24.614Z,1007.89
2019-05-14T07:57:24.602Z,1007.88
2019-05-14T07:58:24.594Z,1007.87
2019-05-14T07:59:24.586Z,1007.90
2019-05-14T08:00:24.577Z,1007.85
2019-05-14T08:01:24.577Z,1007.85
2019-05-14T08:02:24.552Z,1007.84
2019-05-14T08:03:24.549Z,1007.81
2019-05-14T08:04:24.533Z,1007.77
2019-05-14T08:05:24.530Z,1007.75
2019-05-14T08:06:24.523Z,1007.76
2019-05-14T08:07:24.510Z,1007.73
2019-05-14T08:08:24.501Z,1007.78
2019-05-14T08:09:24.493Z,1007.74
2019-05-14T08:10:24.486Z,1007.75
2019-05-14T08:11:24.474Z,1007.77
2019-05-14T08:12:24.477Z,1007.77
2019-05-14T08:13:24.474Z,1007.75
2019-05-14T08:14:24.459Z,1007.77
2019-05-14T08:15:24.446Z,1007.74
2019-05-14T08:16:24.439Z,1007.72
2019-05-14T08:17:24.436Z,1007.70
2019-05-14T08:18:24.420Z,1007.69
2019-05-14T08:19:27.825Z,1007.71
2019-05-14T08:20:24.406Z,1007.61
2019-05-14T08:21:24.397Z,1007.63
2019-05-14T08:22:24.391Z,1007.61
2019-05-14T08:23:24.385Z,1007.54
2019-05-14T08:24:27.153Z,1007.57
2019-05-14T08:25:24.370Z,1007.58
2019-05-14T08:26:24.359Z,1007.53
2019-05-14T08:27:27.988Z,1007.55
2019-05-14T08:28:24.349Z,1007.50
2019-05-14T08:29:24.345Z,1007.54
2019-05-14T08:30:24.339Z,1007.56
2019-05-14T08:31:24.325Z,1007.53
2019-05-14T08:32:24.322Z,1007.54
2019-05-14T08:33:24.312Z,1007.50
2019-05-14T08:34:24.308Z,1007.42
2019-05-14T08:35:24.314Z,1007.48
2019-05-14T08:36:24.291Z,1007.43
2019-05-14T08:37:24.289Z,1007.39
2019-05-14T08:38:24.288Z,1007.43
2019-05-14T08:39:24.275Z,1007.34
2019-05-14T08:40:24.281Z,1007.40
2019-05-14T08:41:24.269Z,1007.37
2019-05-14T08:42:24.249Z,1007.38
2019-05-14T08:43:24.244Z,1007.33
2019-05-14T08:44:24.257Z,1007.33
2019-05-14T08:45:24.233Z,1007.32
2019-05-14T08:46:24.227Z,1007.34
2019-05-14T08:47:24.216Z,1007.31
2019-05-14T08:48:24.215Z,1007.32
2019-05-14T08:49:37.751Z,1007.30
2019-05-14T08:50:24.196Z,1007.28
2019-05-14T08:51:24.185Z,1007.21
2019-05-14T08:52:24.179Z,1007.22
2019-05-14T08:53:24.172Z,1007.24
2019-05-14T08:54:24.160Z,1007.20
2019-05-14T08:55:24.152Z,1007.18
2019-05-14T08:56:24.141Z,1007.16
2019-05-14T08:57:24.153Z,1007.11
2019-05-14T08:58:24.196Z,1007.12
2019-05-14T08:59:24.117Z,1007.10
2019-05-14T09:00:24.104Z,1007.11
2019-05-14T09:01:24.102Z,1007.08
2019-05-14T09:02:24.078Z,1007.12
2019-05-14T09:03:24.072Z,1007.12
2019-05-14T09:04:24.087Z,1007.13
2019-05-14T09:05:24.060Z,1007.13
2019-05-14T09:06:24.044Z,1007.05
2019-05-14T09:07:24.030Z,1007.08
2019-05-14T09:08:24.028Z,1007.00
2019-05-14T09:09:24.012Z,1007.05
2019-05-14T09:10:23.997Z,1007.01
2019-05-14T09:11:26.014Z,1007.03
2019-05-14T09:12:23.978Z,1006.94
2019-05-14T09:13:23.986Z,1007.04
2019-05-14T09:14:23.985Z,1007.01
2019-05-14T09:15:23.952Z,1006.99
2019-05-14T09:16:38.561Z,1006.97
2019-05-14T09:17:23.927Z,1007.03
2019-05-14T09:18:23.925Z,1007.00
2019-05-14T09:19:23.911Z,1006.99
2019-05-14T09:20:23.896Z,1007.02
2019-05-14T09:21:23.888Z,1007.01
2019-05-14T09:22:23.877Z,1006.99
2019-05-14T09:23:23.887Z,1007.03
2019-05-14T09:24:23.861Z,1007.03
2019-05-14T09:25:23.856Z,1006.99
2019-05-14T09:26:23.874Z,1007.00
2019-05-14T09:27:23.828Z,1006.98
2019-05-14T09:28:23.819Z,1007.05
2019-05-14T09:29:26.051Z,1007.05
2019-05-14T09:30:23.971Z,1007.03
2019-05-14T09:31:23.795Z,1007.05
2019-05-14T09:32:23.794Z,1007.03
2019-05-14T09:33:24.464Z,1007.01
2019-05-14T09:34:23.776Z,1007.04
2019-05-14T09:35:23.788Z,1007.09
2019-05-14T09:36:24.393Z,1007.01
2019-05-14T09:37:23.753Z,1007.02
2019-05-14T09:38:23.751Z,1007.03
2019-05-14T09:39:23.739Z,1007.00
2019-05-14T09:40:23.746Z,1006.98
2019-05-14T09:41:23.730Z,1007.01
2019-05-14T09:42:23.722Z,1007.00
2019-05-14T09:43:23.718Z,1007.05
2019-05-14T09:44:23.709Z,1007.04
2019-05-14T09:45:23.710Z,1006.99
2019-05-14T09:46:23.705Z,1006.97
2019-05-14T09:47:23.690Z,1006.94
2019-05-14T09:48:23.681Z,1006.96
2019-05-14T09:49:23.679Z,1006.96
2019-05-14T09:50:23.819Z,1006.95
2019-05-14T09:51:23.664Z,1006.98
2019-05-14T09:52:23.662Z,1006.90
2019-05-14T09:53:23.657Z,1006.91
2019-05-14T09:54:23.651Z,1006.84
2019-05-14T09:55:23.642Z,1006.85
2019-05-14T09:56:23.644Z,1006.88
2019-05-14T09:57:23.634Z,1006.87
2019-05-14T09:58:23.629Z,1006.89
2019-05-14T09:59:23.621Z,1006.83
2019-05-14T10:00:23.619Z,1006.83
2019-05-14T10:01:23.614Z,1006.79
2019-05-14T10:02:23.610Z,1006.79
2019-05-14T10:03:23.603Z,1006.84
2019-05-14T10:04:23.603Z,1006.76
2019-05-14T10:05:23.596Z,1006.72
2019-05-14T10:06:23.590Z,1006.74
2019-05-14T10:07:23.581Z,1006.76
2019-05-14T10:08:23.580Z,1006.75
2019-05-14T10:09:23.575Z,1006.72
2019-05-14T10:10:23.578Z,1006.73
2019-05-14T10:11:23.572Z,1006.81
2019-05-14T10:12:23.566Z,1006.81
2019-05-14T10:13:23.558Z,1006.78
2019-05-14T10:14:23.555Z,1006.76
2019-05-14T10:15:23.558Z,1006.75
2019-05-14T10:16:23.547Z,1006.73
2019-05-14T10:17:23.548Z,1006.74
2019-05-14T10:18:23.539Z,1006.76
2019-05-14T10:19:23.539Z,1006.72
2019-05-14T10:20:36.355Z,1006.72
2019-05-14T10:21:23.529Z,1006.75
2019-05-14T10:22:23.528Z,1006.70
2019-05-14T10:23:23.516Z,1006.75
2019-05-14T10:24:23.521Z,1006.76
2019-05-14T10:25:23.516Z,1006.69
2019-05-14T10:26:23.509Z,1006.65
2019-05-14T10:27:23.503Z,1006.67
2019-05-14T10:28:23.507Z,1006.67
2019-05-14T10:29:23.501Z,1006.68
2019-05-14T10:30:23.498Z,1006.67
2019-05-14T10:31:23.495Z,1006.71
2019-05-14T10:32:23.491Z,1006.66
2019-05-14T10:33:23.485Z,1006.63
2019-05-14T10:34:23.484Z,1006.66
2019-05-14T10:35:23.487Z,1006.59
2019-05-14T10:36:23.485Z,1006.57
2019-05-14T10:37:23.476Z,1006.53
2019-05-14T10:38:23.462Z,1006.54
2019-05-14T10:39:23.465Z,1006.55
2019-05-14T10:40:23.471Z,1006.51
2019-05-14T10:41:23.470Z,1006.39
2019-05-14T10:42:23.452Z,1006.43
2019-05-14T10:43:23.452Z,1006.41
2019-05-14T10:44:23.440Z,1006.43
2019-05-14T10:45:23.442Z,1006.41
2019-05-14T10:46:23.436Z,1006.43
2019-05-14T10:47:23.439Z,1006.43
2019-05-14T10:48:23.428Z,1006.35
2019-05-14T10:49:23.919Z,1006.40
2019-05-14T10:50:23.421Z,1006.41
2019-05-14T10:51:23.420Z,1006.41
2019-05-14T10:52:23.413Z,1006.39
2019-05-14T10:53:23.412Z,1006.37
2019-05-14T10:54:25.827Z,1006.35
2019-05-14T10:55:23.406Z,1006.36
2019-05-14T10:56:23.408Z,1006.36
2019-05-14T10:57:23.405Z,1006.30
2019-05-14T10:58:23.388Z,1006.32
2019-05-14T10:59:23.380Z,1006.33
2019-05-14T11:00:23.378Z,1006.30
2019-05-14T11:01:23.382Z,1006.31
2019-05-14T11:02:23.372Z,1006.31
2019-05-14T11:03:23.367Z,1006.33
2019-05-14T11:04:23.362Z,1006.40
2019-05-14T11:05:23.349Z,1006.33
2019-05-14T11:06:23.350Z,1006.33
2019-05-14T11:07:23.346Z,1006.30
2019-05-14T11:08:23.337Z,1006.32
2019-05-14T11:09:23.339Z,1006.31
2019-05-14T11:10:23.327Z,1006.29
2019-05-14T11:11:23.318Z,1006.28
2019-05-14T11:12:23.313Z,1006.32
2019-05-14T11:13:23.349Z,1006.35
2019-05-14T11:14:23.303Z,1006.24
2019-05-14T11:15:23.289Z,1006.26
2019-05-14T11:16:23.296Z,1006.28
2019-05-14T11:17:23.282Z,1006.26
2019-05-14T11:18:23.272Z,1006.24
2019-05-14T11:19:23.262Z,1006.26
2019-05-14T11:20:23.256Z,1006.19
2019-05-14T11:21:26.798Z,1006.22
2019-05-14T11:22:23.236Z,1006.12
2019-05-14T11:23:23.241Z,1006.10
2019-05-14T11:24:23.228Z,1006.10
2019-05-14T11:25:23.213Z,1006.14
2019-05-14T11:26:24.944Z,1006.10
2019-05-14T11:27:23.214Z,1006.09
2019-05-14T11:28:23.197Z,1006.11
2019-05-14T11:29:23.182Z,1006.06
2019-05-14T11:30:23.182Z,1006.07
2019-05-14T11:31:23.190Z,1006.06
2019-05-14T11:32:23.169Z,1006.00
2019-05-14T11:33:23.161Z,1005.97
2019-05-14T11:34:23.149Z,1006.03
2019-05-14T11:35:23.154Z,1005.97
2019-05-14T11:36:23.139Z,1005.96
2019-05-14T11:37:23.125Z,1005.96
2019-05-14T11:38:33.235Z,1005.94
2019-05-14T11:39:23.117Z,1005.96
2019-05-14T11:40:23.117Z,1006.03
2019-05-14T11:41:23.110Z,1005.99
2019-05-14T11:42:23.111Z,1005.93
2019-05-14T11:43:23.093Z,1005.96
2019-05-14T11:44:23.084Z,1005.96
2019-05-14T11:45:23.087Z,1006.00
2019-05-14T11:46:38.744Z,1005.91
2019-05-14T11:47:23.070Z,1005.94
2019-05-14T11:48:23.064Z,1005.91
2019-05-14T11:49:23.061Z,1005.98
2019-05-14T11:50:23.063Z,1005.89
2019-05-14T11:51:46.042Z,1005.94
2019-05-14T11:52:23.043Z,1005.93
2019-05-14T11:53:23.031Z,1005.93
2019-05-14T11:54:23.274Z,1005.88
2019-05-14T11:55:23.022Z,1005.83
2019-05-14T11:56:23.013Z,1005.89
2019-05-14T11:57:23.018Z,1005.87
2019-05-14T11:58:23.004Z,1005.89
2019-05-14T11:59:22.996Z,1005.89
2019-05-14T12:00:25.859Z,1005.85
2019-05-14T12:01:22.996Z,1005.80
2019-05-14T12:02:22.987Z,1005.86
2019-05-14T12:03:22.983Z,1005.79
2019-05-14T12:04:22.981Z,1005.75
2019-05-14T12:05:22.979Z,1005.72
2019-05-14T12:06:22.969Z,1005.68
2019-05-14T12:07:22.967Z,1005.68
2019-05-14T12:08:22.958Z,1005.69
2019-05-14T12:09:22.959Z,1005.77
2019-05-14T12:10:22.964Z,1005.71
2019-05-14T12:11:22.946Z,1005.70
2019-05-14T12:12:22.936Z,1005.74
2019-05-14T12:13:22.928Z,1005.70
2019-05-14T12:14:22.923Z,1005.66
2019-05-14T12:15:22.918Z,1005.65
2019-05-14T12:16:22.924Z,1005.67
2019-05-14T12:17:22.909Z,1005.65
2019-05-14T12:18:22.897Z,1005.62
2019-05-14T12:19:22.896Z,1005.57
2019-05-14T12:20:22.891Z,1005.53
2019-05-14T12:21:22.884Z,1005.60
2019-05-14T12:22:22.879Z,1005.52
2019-05-14T12:23:22.869Z,1005.49
2019-05-14T12:24:22.856Z,1005.60
2019-05-14T12:25:22.854Z,1005.57
2019-05-14T12:26:22.844Z,1005.59
2019-05-14T12:27:22.842Z,1005.55
2019-05-14T12:28:22.827Z,1005.52
2019-05-14T12:29:22.822Z,1005.54
2019-05-14T12:30:22.809Z,1005.51
2019-05-14T12:31:22.811Z,1005.47
2019-05-14T12:32:22.801Z,1005.51
2019-05-14T12:33:22.796Z,1005.53
2019-05-14T12:34:22.790Z,1005.49
2019-05-14T12:35:22.785Z,1005.51
2019-05-14T12:36:22.775Z,1005.53
2019-05-14T12:37:22.773Z,1005.49
2019-05-14T12:38:22.767Z,1005.47
2019-05-14T12:39:22.759Z,1005.43
2019-05-14T12:40:22.754Z,1005.46
2019-05-14T12:41:22.748Z,1005.47
2019-05-14T12:42:22.739Z,1005.40
2019-05-14T12:43:22.734Z,1005.35
2019-05-14T12:44:22.732Z,1005.39
2019-05-14T12:45:22.726Z,1005.37
2019-05-14T12:46:22.727Z,1005.38
2019-05-14T12:47:22.721Z,1005.35
2019-05-14T12:48:22.729Z,1005.35